Terminal Aerodrome Forecast
Issued by NWS

Home | Current Version | Previous Version | Text Only | Print | Product List | Glossary Off
Versions: 1 2 3 4 5 6 7 8 9 10 11 12 13 14 15 16 17 18 19 20 21 22 23 24

839
FTUS43 KLOT 211120
TAFMDW
TAF
KMDW 211120Z 2112/2212 23012G17KT P6SM BKN150 WS020/26040KT
     FM211530 30015G25KT P6SM BKN040
      TEMPO 2116/2118 6SM -RA
     FM220000 32012KT P6SM SCT040
     FM220300 32008KT P6SM SKC=

USA.gov is the U.S. government's official web portal to all federal, state and local government web resources and services.